Time;durP1;ratioP1;P1;durP2;ratioP2;P2;SDS_P1;SDS_P2;PMS_P1;PMS_P2;Temp;Humidity;BMP_temperature;BMP_pressure;BME280_temperature;BME280_humidity;BME280_pressure;Samples;Min_cycle;Max_cycle;Signal;HPM_P1;HPM_P2
2022/09/07 00:00:08;;;;;;;13.27;10.77;;;;;;;16.05;100.00;101047.59;1969951;28;20359;-69
2022/09/07 00:01:06;;;;;;;10.98;9.70;;;;;;;16.03;100.00;101045.03;1969931;28;20021;-71
2022/09/07 00:02:04;;;;;;;11.55;9.68;;;;;;;15.92;100.00;101047.47;1969656;28;20068;-69
2022/09/07 00:03:02;;;;;;;13.77;10.00;;;;;;;15.91;100.00;101036.09;1961591;28;20026;-68
2022/09/07 00:04:00;;;;;;;13.73;9.82;;;;;;;15.89;100.00;101048.50;1959214;28;20026;-70
2022/09/07 00:04:57;;;;;;;11.25;9.38;;;;;;;15.88;100.00;101046.78;1969152;28;20017;-67
2022/09/07 00:05:55;;;;;;;12.27;9.38;;;;;;;15.80;100.00;101044.66;1969842;28;20481;-68
2022/09/07 00:06:52;;;;;;;11.23;9.57;;;;;;;15.78;100.00;101040.44;1969828;28;20029;-69
2022/09/07 00:07:49;;;;;;;11.65;9.07;;;;;;;15.78;100.00;101045.69;1969837;28;20025;-68
2022/09/07 00:08:47;;;;;;;12.15;9.77;;;;;;;15.67;100.00;101044.53;1969871;28;20022;-69
2022/09/07 00:09:44;;;;;;;11.63;9.38;;;;;;;15.70;100.00;101035.63;1969816;28;20547;-69
2022/09/07 00:10:55;;;;;;;10.07;8.95;;;;;;;15.73;100.00;101029.34;1969979;28;20029;-69
2022/09/07 00:11:53;;;;;;;11.18;8.68;;;;;;;15.73;100.00;101026.72;1969773;28;20014;-69
2022/09/07 00:12:51;;;;;;;10.90;9.10;;;;;;;15.66;100.00;101023.59;1969809;28;20114;-69
2022/09/07 00:13:49;;;;;;;13.18;9.38;;;;;;;15.62;100.00;101022.94;1969806;28;20423;-69
2022/09/07 00:14:46;;;;;;;13.63;10.32;;;;;;;15.55;100.00;101019.00;1969949;28;20041;-69
2022/09/07 00:15:44;;;;;;;14.32;9.70;;;;;;;15.57;100.00;101017.13;1969881;28;20029;-68
2022/09/07 00:16:41;;;;;;;10.27;9.05;;;;;;;15.53;100.00;101011.19;1969738;28;20053;-69
2022/09/07 00:17:39;;;;;;;16.45;9.70;;;;;;;15.45;100.00;101009.03;1969877;28;20279;-72
2022/09/07 00:18:36;;;;;;;13.80;10.25;;;;;;;15.50;100.00;101006.13;1969776;28;20030;-68
2022/09/07 00:19:34;;;;;;;11.73;9.45;;;;;;;15.45;100.00;101006.41;1961429;28;20041;-68
2022/09/07 00:20:31;;;;;;;10.23;9.20;;;;;;;15.44;100.00;101011.75;1961521;28;20054;-69
2022/09/07 00:21:29;;;;;;;14.60;9.63;;;;;;;15.39;100.00;101014.66;1968729;28;20038;-68
2022/09/07 00:22:26;;;;;;;13.82;9.68;;;;;;;15.38;100.00;101012.97;1969768;28;20042;-69
2022/09/07 00:23:24;;;;;;;11.85;8.98;;;;;;;15.36;100.00;101020.09;1969820;28;20049;-69
2022/09/07 00:24:21;;;;;;;15.07;9.48;;;;;;;15.33;100.00;101017.69;1969740;28;20030;-68
2022/09/07 00:25:19;;;;;;;11.50;8.88;;;;;;;15.35;100.00;101018.41;1969764;28;20021;-71
2022/09/07 00:26:20;;;;;;;12.35;9.60;;;;;;;15.30;100.00;101016.06;1969409;28;20085;-68
2022/09/07 00:27:18;;;;;;;14.82;9.20;;;;;;;15.26;100.00;101008.47;1969297;28;20041;-67
2022/09/07 00:28:15;;;;;;;13.07;9.50;;;;;;;15.26;100.00;101008.47;1969682;28;20386;-68
2022/09/07 00:29:13;;;;;;;11.93;9.50;;;;;;;15.21;100.00;101010.50;1969734;28;20464;-68
2022/09/07 00:30:10;;;;;;;12.20;8.82;;;;;;;15.23;100.00;101011.28;1969804;28;20045;-69
2022/09/07 00:31:15;;;;;;;12.77;8.43;;;;;;;15.25;100.00;101014.63;1969589;28;20021;-69
2022/09/07 00:32:12;;;;;;;12.02;9.15;;;;;;;15.26;100.00;101014.53;1969874;28;20501;-68
2022/09/07 00:33:10;;;;;;;12.88;9.30;;;;;;;15.23;100.00;101008.63;1969704;28;20033;-68
2022/09/07 00:34:07;;;;;;;11.32;8.45;;;;;;;15.18;100.00;101011.53;1967384;28;20478;-68
2022/09/07 00:35:05;;;;;;;11.73;9.32;;;;;;;15.14;100.00;101016.13;1969682;28;20030;-67
2022/09/07 00:36:02;;;;;;;10.35;8.25;;;;;;;15.14;100.00;101021.41;1969784;28;20036;-67
2022/09/07 00:37:00;;;;;;;11.10;8.32;;;;;;;15.12;100.00;101022.44;1969632;28;20079;-68
2022/09/07 00:37:58;;;;;;;9.20;8.20;;;;;;;15.16;100.00;101023.94;1969690;28;20041;-67
2022/09/07 00:38:55;;;;;;;10.88;8.82;;;;;;;15.16;100.00;101021.31;1969760;28;20036;-67
2022/09/07 00:39:52;;;;;;;9.85;8.10;;;;;;;15.17;100.00;101021.22;1969784;28;20104;-67
2022/09/07 00:40:50;;;;;;;9.48;8.45;;;;;;;15.12;100.00;101015.38;1969756;28;20076;-68
2022/09/07 00:41:47;;;;;;;10.07;7.68;;;;;;;15.11;100.00;101021.56;1969550;28;20050;-68
2022/09/07 00:42:45;;;;;;;11.80;8.60;;;;;;;15.12;100.00;101004.03;1961484;28;20073;-67
2022/09/07 00:43:53;;;;;;;11.88;8.82;;;;;;;15.12;100.00;101004.03;1961403;28;20473;-68
2022/09/07 00:45:16;;;;;;;11.07;8.35;;;;;;;15.10;100.00;100998.84;1969791;28;20084;-67
2022/09/07 00:46:18;;;;;;;11.95;8.75;;;;;;;15.04;100.00;100993.94;1969695;28;20030;-67
2022/09/07 00:47:49;;;;;;;13.98;8.68;;;;;;;15.03;100.00;100997.53;1969594;28;20026;-67
2022/09/07 00:49:09;;;;;;;10.70;8.15;;;;;;;15.00;100.00;100989.81;1961397;28;20050;-67
2022/09/07 00:50:27;;;;;;;11.20;8.50;;;;;;;15.00;100.00;100988.03;1969624;28;20060;-67
2022/09/07 00:51:44;;;;;;;11.43;8.15;;;;;;;15.01;100.00;100984.47;1961218;28;20042;-67
2022/09/07 00:52:47;;;;;;;12.30;8.35;;;;;;;15.00;100.00;100981.94;1963274;28;20061;-67
2022/09/07 00:53:54;;;;;;;13.88;8.85;;;;;;;15.00;100.00;100971.41;1969643;28;20044;-67
2022/09/07 00:54:57;;;;;;;14.57;9.02;;;;;;;15.01;100.00;100973.97;1969656;28;20064;-68
2022/09/07 00:55:58;;;;;;;11.65;9.25;;;;;;;15.00;100.00;100967.03;1969566;28;20026;-67
2022/09/07 00:56:55;;;;;;;15.35;9.07;;;;;;;15.00;100.00;100964.41;1969754;28;20026;-67
2022/09/07 00:57:55;;;;;;;15.45;9.15;;;;;;;14.99;100.00;100959.22;1969575;28;20116;-67
2022/09/07 00:58:53;;;;;;;11.90;9.05;;;;;;;14.98;100.00;100963.63;1969719;28;20022;-68
2022/09/07 00:59:53;;;;;;;14.80;9.43;;;;;;;14.98;100.00;100958.38;1969534;28;20035;-67
2022/09/07 01:00:51;;;;;;;15.80;9.35;;;;;;;14.96;100.00;100956.78;1969664;28;20446;-67
2022/09/07 01:01:48;;;;;;;13.98;9.15;;;;;;;14.96;100.00;100951.53;1969328;28;20064;-67
2022/09/07 01:02:50;;;;;;;13.50;9.20;;;;;;;14.92;100.00;100962.22;1969641;28;20084;-68
2022/09/07 01:03:52;;;;;;;16.35;9.73;;;;;;;14.91;100.00;100960.53;1967217;28;20029;-67
2022/09/07 01:04:59;;;;;;;14.60;9.52;;;;;;;14.89;100.00;100957.13;1961212;28;20076;-67
2022/09/07 01:06:18;;;;;;;13.25;9.00;;;;;;;14.88;100.00;100963.31;1961619;28;20058;-67
2022/09/07 01:07:17;;;;;;;15.98;9.50;;;;;;;14.85;100.00;100965.28;1969632;28;20045;-67
2022/09/07 01:08:15;;;;;;;12.63;9.25;;;;;;;14.86;100.00;100970.47;1969620;28;20033;-67
2022/09/07 01:09:21;;;;;;;13.35;9.75;;;;;;;14.87;100.00;100972.16;1969708;28;20121;-67
2022/09/07 01:10:23;;;;;;;14.63;9.70;;;;;;;14.87;100.00;100972.16;1961182;28;20039;-67
2022/09/07 01:11:22;;;;;;;15.98;10.35;;;;;;;14.86;100.00;100970.47;1961327;28;20041;-67
2022/09/07 01:12:19;;;;;;;14.13;10.35;;;;;;;14.88;100.00;100971.19;1969519;28;20033;-67
2022/09/07 01:13:17;;;;;;;16.00;10.18;;;;;;;14.87;100.00;100973.91;1969623;28;20501;-67
2022/09/07 01:14:14;;;;;;;15.45;10.07;;;;;;;14.87;100.00;100974.78;1969481;28;20601;-67
2022/09/07 01:15:11;;;;;;;15.88;10.10;;;;;;;14.86;100.00;100986.22;1969532;28;20029;-67
2022/09/07 01:16:45;;;;;;;15.77;9.88;;;;;;;14.86;100.00;100978.34;1969551;28;20119;-66
2022/09/07 01:18:23;;;;;;;11.73;9.25;;;;;;;14.82;100.00;100984.72;1961300;28;20026;-67
2022/09/07 01:19:44;;;;;;;12.68;9.18;;;;;;;14.79;100.00;100979.63;1965993;28;20038;-66
2022/09/07 01:21:05;;;;;;;13.30;8.82;;;;;;;14.76;100.00;100975.38;1969515;28;20568;-67
2022/09/07 01:22:24;;;;;;;15.15;9.43;;;;;;;14.75;100.00;100975.47;1969433;28;20543;-66
2022/09/07 01:23:44;;;;;;;17.77;9.95;;;;;;;14.74;100.00;100973.75;1969525;28;20034;-67
2022/09/07 01:24:59;;;;;;;14.90;8.77;;;;;;;14.72;100.00;100976.50;1969509;28;20029;-67
2022/09/07 01:26:28;;;;;;;17.45;9.48;;;;;;;14.73;100.00;100969.44;1969663;28;20025;-66
2022/09/07 01:27:50;;;;;;;16.67;9.50;;;;;;;14.71;100.00;100972.16;1969411;28;20037;-66
2022/09/07 01:29:15;;;;;;;13.45;9.55;;;;;;;14.70;100.00;100985.38;1961059;28;20037;-67
2022/09/07 01:30:23;;;;;;;14.32;9.35;;;;;;;14.73;100.00;100985.19;1961239;28;20030;-66
2022/09/07 01:31:58;;;;;;;14.55;9.25;;;;;;;14.73;100.00;100979.94;1960983;28;20033;-67
2022/09/07 01:33:40;;;;;;;14.48;9.07;;;;;;;14.77;100.00;100986.75;1965779;28;20030;-67
2022/09/07 01:34:40;;;;;;;15.27;9.40;;;;;;;14.75;100.00;100984.19;1961090;28;20128;-66
2022/09/07 01:35:49;;;;;;;;;;;;;;;14.72;100.00;100981.75;1969891;28;20030;-66
2022/09/07 01:37:04;;;;;;;15.05;9.07;;;;;;;14.73;100.00;100977.31;1969581;28;20312;-67
2022/09/07 01:38:29;;;;;;;14.77;9.02;;;;;;;14.75;100.00;100978.91;1961397;28;20031;-67
2022/09/07 01:39:47;;;;;;;14.95;9.13;;;;;;;14.74;100.00;100981.63;1965738;28;20033;-67
2022/09/07 01:41:03;;;;;;;13.38;9.38;;;;;;;14.79;100.00;100984.88;1970954;28;20072;-66
2022/09/07 01:42:10;;;;;;;15.52;9.63;;;;;;;14.76;100.00;100979.78;1970863;28;20076;-66
2022/09/07 01:43:31;;;;;;;16.58;9.95;;;;;;;14.78;100.00;100980.59;1970841;28;20064;-66
2022/09/07 01:44:56;;;;;;;16.42;9.30;;;;;;;14.78;100.00;100981.41;1970941;28;20109;-66
2022/09/07 01:45:57;;;;;;;13.95;9.30;;;;;;;14.78;100.00;100985.84;1970805;28;20036;-65
2022/09/07 01:47:17;;;;;;;16.63;9.35;;;;;;;14.78;100.00;100977.94;1970916;28;20059;-65
2022/09/07 01:48:17;;;;;;;18.65;9.65;;;;;;;14.77;100.00;100984.13;1970944;28;20033;-65
2022/09/07 01:50:06;;;;;;;20.08;10.10;;;;;;;14.77;100.00;100976.25;1970912;28;20029;-66
2022/09/07 01:51:10;;;;;;;16.80;9.50;;;;;;;14.74;100.00;100979.00;1970771;28;20029;-66
2022/09/07 01:52:15;;;;;;;16.20;9.77;;;;;;;14.74;100.00;100979.00;1970756;28;20072;-65
2022/09/07 01:53:22;;;;;;;13.43;9.80;;;;;;;14.73;100.00;100978.19;1970893;28;20400;-65
2022/09/07 01:54:29;;;;;;;16.67;10.15;;;;;;;14.73;100.00;100974.69;1970819;28;20030;-65
2022/09/07 01:55:30;;;;;;;16.75;9.70;;;;;;;14.73;100.00;100985.19;1970875;28;20120;-67
2022/09/07 01:56:37;;;;;;;15.68;9.85;;;;;;;14.73;100.00;100974.69;1962441;28;20030;-66
2022/09/07 01:58:11;;;;;;;16.85;9.98;;;;;;;14.70;100.00;100980.13;1963087;28;20036;-66
2022/09/07 01:59:42;;;;;;;17.42;9.45;;;;;;;14.66;100.00;100979.47;1969609;28;20042;-66
2022/09/07 02:00:47;;;;;;;14.77;9.32;;;;;;;14.61;100.00;100982.34;1970636;28;20080;-65
2022/09/07 02:01:56;;;;;;;17.98;9.95;;;;;;;14.61;100.00;100982.34;1970639;28;20045;-66
2022/09/07 02:03:08;;;;;;;14.40;10.13;;;;;;;14.61;100.00;100982.34;1970809;28;20445;-66
2022/09/07 02:04:15;;;;;;;18.02;10.95;;;;;;;14.61;100.00;100987.59;1968442;28;20484;-65
2022/09/07 02:05:30;;;;;;;17.73;10.23;;;;;;;14.61;100.00;100986.78;1962321;28;20037;-65
2022/09/07 02:06:54;;;;;;;16.88;10.07;;;;;;;14.60;100.00;100980.66;1956145;28;20049;-65
2022/09/07 02:08:02;;;;;;;16.83;9.55;;;;;;;14.57;100.00;100983.47;1965445;28;20428;-65
2022/09/07 02:09:13;;;;;;;19.50;10.15;;;;;;;14.56;100.00;100984.41;1970767;28;20025;-65
2022/09/07 02:10:20;;;;;;;20.10;10.57;;;;;;;14.54;100.00;100986.25;1970940;28;20025;-65
2022/09/07 02:11:32;;;;;;;17.00;10.90;;;;;;;14.53;100.00;100982.81;1970625;28;20092;-66
2022/09/07 02:12:41;;;;;;;16.48;10.07;;;;;;;14.51;100.00;100979.41;1970766;28;20079;-66
2022/09/07 02:13:51;;;;;;;21.30;11.35;;;;;;;14.48;100.00;100976.13;1970729;28;20196;-66
2022/09/07 02:14:59;;;;;;;19.13;11.13;;;;;;;14.47;100.00;100972.63;1970750;28;20105;-66
2022/09/07 02:16:24;;;;;;;19.20;10.60;;;;;;;14.46;100.00;100975.34;1970746;28;20497;-66
2022/09/07 02:17:32;;;;;;;18.05;10.52;;;;;;;14.46;100.00;100973.56;1969872;28;20084;-66
2022/09/07 02:18:39;;;;;;;20.63;10.52;;;;;;;14.45;100.00;100968.41;1962408;28;20090;-66
2022/09/07 02:19:48;;;;;;;19.67;11.13;;;;;;;14.45;100.00;100977.16;1962812;28;20375;-66
2022/09/07 02:20:55;;;;;;;17.05;10.98;;;;;;;14.45;100.00;100971.03;1970761;28;20029;-66
2022/09/07 02:22:02;;;;;;;19.92;10.23;;;;;;;14.41;100.00;100971.19;1970551;28;20489;-66
2022/09/07 02:23:07;;;;;;;20.00;10.68;;;;;;;14.40;100.00;100974.78;1970709;28;20036;-66
2022/09/07 02:24:11;;;;;;;21.45;11.93;;;;;;;14.40;100.00;100966.03;1970595;28;20108;-65
2022/09/07 02:25:15;;;;;;;18.85;11.70;;;;;;;14.40;100.00;100969.50;1970613;28;20040;-66
2022/09/07 02:26:20;;;;;;;19.30;11.45;;;;;;;14.41;100.00;100981.69;1970571;28;20478;-66
2022/09/07 02:27:25;;;;;;;19.60;11.70;;;;;;;14.41;100.00;100965.94;1970729;28;20041;-65
2022/09/07 02:28:29;;;;;;;20.95;12.27;;;;;;;14.39;100.00;100978.34;1962273;28;20044;-65
2022/09/07 02:29:26;;;;;;;20.15;11.50;;;;;;;14.40;100.00;100979.16;1962220;28;20042;-65
2022/09/07 02:30:24;;;;;;;21.90;12.25;;;;;;;14.41;100.00;100983.50;1970589;28;20482;-66
2022/09/07 02:31:21;;;;;;;19.05;12.25;;;;;;;14.39;100.00;100983.59;1970608;28;20057;-66
2022/09/07 02:32:19;;;;;;;22.10;11.77;;;;;;;14.40;100.00;100985.28;1970748;28;20037;-66
2022/09/07 02:33:17;;;;;;;23.75;12.85;;;;;;;14.39;100.00;100978.34;1970658;28;20113;-66
2022/09/07 02:34:14;;;;;;;21.42;12.48;;;;;;;14.40;100.00;100979.16;1968152;28;20134;-65
2022/09/07 02:35:12;;;;;;;23.98;12.82;;;;;;;14.40;100.00;100977.41;1970520;28;20050;-66
2022/09/07 02:36:13;;;;;;;19.13;12.18;;;;;;;14.41;100.00;100981.69;1970532;28;20053;-65
2022/09/07 02:37:13;;;;;;;22.15;12.30;;;;;;;14.51;100.00;100975.94;1970561;28;20038;-66
2022/09/07 02:38:11;;;;;;;26.08;13.07;;;;;;;14.47;100.00;100975.25;1970539;28;20079;-66
2022/09/07 02:39:08;;;;;;;24.20;13.00;;;;;;;14.46;100.00;100978.81;1970564;28;20052;-65
2022/09/07 02:40:07;;;;;;;26.13;13.38;;;;;;;14.44;100.00;100970.19;1970375;28;20028;-66
2022/09/07 02:41:30;;;;;;;22.98;12.60;;;;;;;14.41;100.00;100971.19;1970454;28;20084;-66
2022/09/07 02:42:33;;;;;;;24.73;12.45;;;;;;;14.40;100.00;100973.91;1970609;28;20064;-66
2022/09/07 02:43:32;;;;;;;20.40;12.73;;;;;;;14.43;100.00;100971.13;1970572;28;20041;-66
2022/09/07 02:44:35;;;;;;;22.60;12.75;;;;;;;14.45;100.00;100965.78;1970444;28;20322;-66
2022/09/07 02:45:59;;;;;;;22.08;12.93;;;;;;;14.43;100.00;100979.00;1970550;28;20036;-66
2022/09/07 02:47:33;;;;;;;24.90;12.57;;;;;;;14.38;100.00;100966.16;1970433;28;20110;-66
2022/09/07 02:49:07;;;;;;;25.52;12.52;;;;;;;14.37;100.00;100969.69;1970445;28;20034;-65
2022/09/07 02:50:38;;;;;;;23.35;12.98;;;;;;;14.35;100.00;100973.34;1969529;28;20477;-66
2022/09/07 02:51:50;;;;;;;23.08;12.85;;;;;;;14.32;100.00;100976.13;1970596;28;20388;-66
2022/09/07 02:53:40;;;;;;;24.77;12.88;;;;;;;14.31;100.00;100980.56;1970301;28;20080;-66
2022/09/07 02:55:19;;;;;;;26.02;12.85;;;;;;;14.27;100.00;100984.28;1970280;28;20056;-65
2022/09/07 02:57:01;;;;;;;24.52;12.88;;;;;;;14.26;100.00;100990.44;1970428;28;20026;-65
2022/09/07 02:58:19;;;;;;;21.50;12.23;;;;;;;14.35;100.00;100992.56;1970373;28;20026;-65
2022/09/07 02:59:34;;;;;;;24.55;12.90;;;;;;;14.43;100.00;100989.50;1970324;28;20054;-65
2022/09/07 03:00:43;;;;;;;24.27;13.20;;;;;;;14.50;100.00;100990.00;1970471;28;20030;-66
2022/09/07 03:02:24;;;;;;;25.00;13.48;;;;;;;14.51;100.00;100987.28;1961954;28;20053;-65
2022/09/07 03:03:49;;;;;;;24.60;13.18;;;;;;;14.60;100.00;100980.66;1966990;28;20401;-67
2022/09/07 03:05:17;;;;;;;22.20;13.50;;;;;;;14.63;100.00;100974.38;1970392;28;20029;-66
2022/09/07 03:06:38;;;;;;;28.30;14.18;;;;;;;14.64;100.00;100971.66;1970322;28;20141;-67
2022/09/07 03:07:46;;;;;;;23.77;14.25;;;;;;;14.66;100.00;100968.97;1962010;28;20030;-66
2022/09/07 03:08:52;;;;;;;31.90;14.93;;;;;;;14.65;100.00;100972.53;1962676;28;20033;-66
2022/09/07 03:09:55;;;;;;;27.27;14.63;;;;;;;14.67;100.00;100970.63;1970281;28;20486;-66
2022/09/07 03:10:53;;;;;;;28.10;14.85;;;;;;;14.69;100.00;100968.78;1970460;28;20032;-66
2022/09/07 03:11:51;;;;;;;30.58;15.60;;;;;;;14.71;100.00;100966.06;1970223;28;20033;-66
2022/09/07 03:12:50;;;;;;;27.83;16.23;;;;;;;14.77;100.00;100974.47;1970322;28;20050;-65
2022/09/07 03:13:47;;;;;;;29.58;15.48;;;;;;;14.80;100.00;100971.66;1970231;28;20178;-66
2022/09/07 03:14:44;;;;;;;27.52;15.65;;;;;;;14.82;100.00;100963.69;1970324;28;20080;-66
2022/09/07 03:15:42;;;;;;;28.55;15.98;;;;;;;14.83;100.00;100975.91;1970163;28;20036;-66
2022/09/07 03:16:39;;;;;;;33.33;16.60;;;;;;;14.86;100.00;100965.22;1970333;28;20037;-66
2022/09/07 03:17:38;;;;;;;29.05;15.77;;;;;;;14.87;100.00;100966.91;1970166;28;20037;-66
2022/09/07 03:18:35;;;;;;;26.63;15.93;;;;;;;14.92;100.00;100959.56;1970099;28;20413;-65
2022/09/07 03:19:33;;;;;;;25.45;15.32;;;;;;;14.96;100.00;100962.03;1961777;28;20066;-66
2022/09/07 03:20:30;;;;;;;29.20;16.35;;;;;;;14.98;100.00;100960.19;1962047;28;20030;-66
2022/09/07 03:21:27;;;;;;;26.83;15.48;;;;;;;15.00;100.00;100961.75;1969210;28;20117;-66
2022/09/07 03:22:25;;;;;;;27.02;15.48;;;;;;;15.03;100.00;100960.72;1970069;28;20037;-66
2022/09/07 03:23:22;;;;;;;30.10;15.68;;;;;;;15.03;100.00;100955.47;1970308;28;20047;-66
2022/09/07 03:24:20;;;;;;;28.13;15.30;;;;;;;15.05;100.00;100958.84;1970095;28;20034;-66
2022/09/07 03:25:18;;;;;;;25.92;14.98;;;;;;;15.08;100.00;100953.41;1970329;28;20449;-65
2022/09/07 03:26:24;;;;;;;26.77;15.32;;;;;;;15.08;100.00;100957.84;1970164;28;20638;-66
2022/09/07 03:27:21;;;;;;;26.73;15.48;;;;;;;15.07;100.00;100956.97;1970202;28;20033;-65
2022/09/07 03:28:18;;;;;;;23.90;14.38;;;;;;;15.10;100.00;100956.81;1970082;28;20052;-66
2022/09/07 03:29:17;;;;;;;22.10;14.23;;;;;;;15.12;100.00;100954.91;1970221;28;20028;-65
2022/09/07 03:30:14;;;;;;;25.30;14.85;;;;;;;15.13;100.00;100956.63;1970015;28;20068;-65
2022/09/07 03:31:11;;;;;;;25.02;14.15;;;;;;;15.16;100.00;100956.41;1970214;28;20396;-65
2022/09/07 03:32:09;;;;;;;26.92;14.13;;;;;;;15.17;100.00;100963.38;1970183;28;20470;-65
2022/09/07 03:33:06;;;;;;;21.98;13.93;;;;;;;15.16;100.00;100961.69;1970188;28;20100;-65
2022/09/07 03:34:04;;;;;;;21.17;13.73;;;;;;;15.19;100.00;100958.88;1959287;28;20050;-65
2022/09/07 03:35:05;;;;;;;25.27;14.15;;;;;;;15.16;100.00;100960.84;1961930;28;20414;-65
2022/09/07 03:36:02;;;;;;;22.65;14.10;;;;;;;15.15;100.00;100954.75;1969735;28;20057;-67
2022/09/07 03:36:59;;;;;;;22.58;13.60;;;;;;;15.18;100.00;100957.19;1961683;28;20498;-66
2022/09/07 03:37:57;;;;;;;20.35;13.63;;;;;;;15.08;100.00;100958.66;1961733;28;20097;-65
2022/09/07 03:38:55;;;;;;;22.88;13.82;;;;;;;15.15;100.00;100960.00;1969152;28;20032;-66
2022/09/07 03:39:52;;;;;;;20.83;13.52;;;;;;;15.18;100.00;100962.44;1970077;28;20112;-65
2022/09/07 03:41:01;;;;;;;21.08;13.25;;;;;;;15.19;100.00;100961.50;1970080;28;20443;-65
2022/09/07 03:41:58;;;;;;;20.02;13.07;;;;;;;15.22;100.00;100962.25;1970026;28;20026;-65
2022/09/07 03:42:56;;;;;;;20.67;12.88;;;;;;;15.24;100.00;100957.75;1961645;28;20082;-65
2022/09/07 03:43:54;;;;;;;21.17;12.82;;;;;;;15.25;100.00;100954.16;1961870;28;20363;-65
2022/09/07 03:44:51;;;;;;;19.63;12.60;;;;;;;15.27;100.00;100962.81;1960968;28;20128;-65
2022/09/07 03:45:48;;;;;;;17.90;12.75;;;;;;;15.24;100.00;100965.63;1961820;28;20011;-65
2022/09/07 03:46:46;;;;;;;22.05;13.40;;;;;;;15.24;100.00;100965.63;1969094;28;20045;-65
2022/09/07 03:47:44;;;;;;;18.38;12.77;;;;;;;15.25;100.00;100967.31;1970054;28;20041;-65
2022/09/07 03:48:41;;;;;;;16.75;12.50;;;;;;;15.28;100.00;100967.13;1969959;28;20397;-65
2022/09/07 03:49:38;;;;;;;20.33;11.77;;;;;;;15.28;100.00;100965.38;1969976;28;20056;-65
2022/09/07 03:50:36;;;;;;;18.52;11.95;;;;;;;15.29;100.00;100966.19;1970091;28;20021;-64
2022/09/07 03:51:33;;;;;;;18.73;12.32;;;;;;;15.28;100.00;100964.50;1970003;28;20045;-65
2022/09/07 03:52:30;;;;;;;17.42;11.98;;;;;;;15.27;100.00;100957.56;1970053;28;20034;-64
2022/09/07 03:53:39;;;;;;;17.98;11.57;;;;;;;15.26;100.00;100961.13;1969914;28;20117;-65
2022/09/07 03:54:37;;;;;;;14.52;11.23;;;;;;;15.26;100.00;100956.72;1969904;28;20030;-65
2022/09/07 03:55:34;;;;;;;15.32;11.25;;;;;;;15.29;100.00;100963.56;1969931;28;20108;-65
2022/09/07 03:56:32;;;;;;;15.90;11.50;;;;;;;15.26;100.00;100959.34;1970032;28;20429;-65
2022/09/07 03:57:29;;;;;;;14.05;11.35;;;;;;;15.28;100.00;100956.63;1969925;28;20056;-65
2022/09/07 03:58:29;;;;;;;14.68;11.23;;;;;;;15.28;100.00;100952.22;1970096;28;20095;-65
2022/09/07 03:59:26;;;;;;;14.10;11.23;;;;;;;15.26;100.00;100958.50;1969949;28;20057;-65
2022/09/07 04:00:24;;;;;;;18.25;11.82;;;;;;;15.25;100.00;100957.66;1969992;28;20033;-65
2022/09/07 04:01:24;;;;;;;17.67;11.20;;;;;;;15.28;100.00;100959.25;1969538;28;20029;-65
2022/09/07 04:02:22;;;;;;;15.32;10.55;;;;;;;15.27;100.00;100950.53;1969867;28;20045;-64
2022/09/07 04:03:19;;;;;;;19.48;11.90;;;;;;;15.29;100.00;100950.41;1969851;28;20076;-64
2022/09/07 04:04:17;;;;;;;17.63;11.05;;;;;;;15.28;100.00;100943.47;1967518;28;20029;-65
2022/09/07 04:05:14;;;;;;;18.70;12.20;;;;;;;15.29;100.00;100938.13;1969915;28;20029;-65
2022/09/07 04:06:12;;;;;;;16.83;11.43;;;;;;;15.27;100.00;100931.28;1969723;28;20481;-65
2022/09/07 04:07:09;;;;;;;15.73;11.07;;;;;;;15.28;100.00;100923.31;1969674;28;20033;-65
2022/09/07 04:08:07;;;;;;;15.10;11.50;;;;;;;15.30;100.00;100925.84;1969847;28;20021;-65
2022/09/07 04:09:10;;;;;;;17.02;12.27;;;;;;;15.31;100.00;100919.63;1969877;28;20030;-65
2022/09/07 04:10:08;;;;;;;17.60;11.77;;;;;;;15.32;100.00;100923.94;1969876;28;20025;-65
2022/09/07 04:11:11;;;;;;;15.27;11.35;;;;;;;15.30;100.00;100920.59;1969892;28;20525;-65
2022/09/07 04:12:08;;;;;;;15.73;12.18;;;;;;;15.24;100.00;100915.69;1969856;28;20629;-65
2022/09/07 04:13:07;;;;;;;16.17;11.35;;;;;;;15.23;100.00;100919.25;1969954;28;20049;-65
2022/09/07 04:14:05;;;;;;;15.35;11.45;;;;;;;15.23;100.00;100920.13;1970007;28;20048;-65
2022/09/07 04:15:02;;;;;;;16.63;12.18;;;;;;;15.18;100.00;100917.75;1969868;28;20021;-65
2022/09/07 04:16:18;;;;;;;20.15;12.38;;;;;;;15.21;100.00;100919.34;1969757;28;20037;-65
2022/09/07 04:17:16;;;;;;;19.38;12.02;;;;;;;15.17;100.00;100913.44;1969828;28;20050;-65
2022/09/07 04:18:13;;;;;;;18.83;12.65;;;;;;;15.18;100.00;100912.50;1969757;28;20036;-65
2022/09/07 04:19:11;;;;;;;20.85;12.38;;;;;;;15.15;100.00;100912.69;1969692;28;20056;-65
2022/09/07 04:20:09;;;;;;;16.25;12.35;;;;;;;15.15;100.00;100912.69;1969705;28;20054;-65
2022/09/07 04:21:07;;;;;;;18.85;12.02;;;;;;;15.14;100.00;100916.25;1969753;28;20125;-65
2022/09/07 04:22:04;;;;;;;19.27;12.73;;;;;;;15.14;100.00;100915.41;1969646;28;20114;-65
2022/09/07 04:23:02;;;;;;;19.02;12.85;;;;;;;15.15;100.00;100912.69;1969828;28;20022;-65
2022/09/07 04:24:00;;;;;;;17.55;12.52;;;;;;;15.14;100.00;100915.41;1969810;28;20036;-65
2022/09/07 04:24:57;;;;;;;19.67;12.50;;;;;;;15.13;100.00;100918.97;1969713;28;20030;-66
2022/09/07 04:25:54;;;;;;;20.77;13.20;;;;;;;15.12;100.00;100919.94;1969843;28;20072;-65
2022/09/07 04:26:52;;;;;;;18.85;13.10;;;;;;;15.09;100.00;100922.72;1969740;28;20083;-66
2022/09/07 04:27:49;;;;;;;19.85;12.50;;;;;;;15.08;100.00;100924.50;1969812;28;20029;-65
2022/09/07 04:28:47;;;;;;;19.38;12.52;;;;;;;15.05;100.00;100922.91;1969756;28;20108;-65
2022/09/07 04:29:46;;;;;;;15.82;11.52;;;;;;;15.04;100.00;100921.22;1969783;28;20061;-65
2022/09/07 04:30:45;;;;;;;21.83;12.98;;;;;;;15.02;100.00;100927.53;1969584;28;20037;-65
2022/09/07 04:31:42;;;;;;;18.98;12.25;;;;;;;15.02;100.00;100932.78;1969820;28;20021;-65
2022/09/07 04:32:39;;;;;;;19.58;12.52;;;;;;;15.02;100.00;100933.59;1969657;28;20217;-65
2022/09/07 04:33:37;;;;;;;16.48;12.63;;;;;;;15.01;100.00;100938.94;1967487;28;20393;-65
2022/09/07 04:34:34;;;;;;;19.25;13.20;;;;;;;15.02;100.00;100938.84;1969621;28;20037;-65
2022/09/07 04:35:41;;;;;;;21.15;13.02;;;;;;;15.03;100.00;100935.31;1969592;28;20038;-65
2022/09/07 04:36:38;;;;;;;19.38;12.93;;;;;;;15.05;100.00;100945.72;1969640;28;20041;-65
2022/09/07 04:37:36;;;;;;;21.83;13.02;;;;;;;15.08;100.00;100935.00;1969687;28;20033;-65
2022/09/07 04:38:33;;;;;;;19.55;13.93;;;;;;;15.11;100.00;100934.84;1969758;28;20040;-65
2022/09/07 04:39:31;;;;;;;22.58;13.27;;;;;;;15.12;100.00;100933.06;1969619;28;20114;-65
2022/09/07 04:40:28;;;;;;;23.40;12.90;;;;;;;15.15;100.00;100938.97;1969711;28;20425;-65
2022/09/07 04:41:28;;;;;;;21.38;13.70;;;;;;;15.10;100.00;100935.78;1969552;28;20026;-67
2022/09/07 04:42:25;;;;;;;21.85;14.13;;;;;;;15.10;100.00;100934.94;1969725;28;20108;-66
2022/09/07 04:43:22;;;;;;;19.10;13.30;;;;;;;15.13;100.00;100935.59;1961261;28;20046;-66
2022/09/07 04:44:20;;;;;;;20.17;13.50;;;;;;;15.15;100.00;100936.34;1961424;28;20131;-66
2022/09/07 04:45:17;;;;;;;24.65;13.93;;;;;;;15.18;100.00;100944.03;1968714;28;20037;-66
2022/09/07 04:46:27;;;;;;;21.35;13.63;;;;;;;15.21;100.00;100936.91;1969691;28;20045;-66
2022/09/07 04:47:25;;;;;;;22.02;13.88;;;;;;;15.21;100.00;100939.53;1969666;28;20048;-66
2022/09/07 04:48:22;;;;;;;21.70;13.80;;;;;;;15.24;100.00;100936.72;1969661;28;20080;-65
2022/09/07 04:49:20;;;;;;;21.08;13.98;;;;;;;15.26;100.00;100938.31;1961173;28;20158;-66
2022/09/07 04:50:18;;;;;;;21.17;14.27;;;;;;;15.23;100.00;100935.03;1961332;28;20033;-66